Time;durP1;ratioP1;P1;durP2;ratioP2;P2;SDS_P1;SDS_P2;PMS_P1;PMS_P2;Temp;Humidity;BMP_temperature;BMP_pressure;BME280_temperature;BME280_humidity;BME280_pressure;Samples;Min_cycle;Max_cycle;Signal;HPM_P1;HPM_P2
2024/03/23 00:00:43;;;;;;;14.63;9.23;;;8.60;99.90;;;;;;4831163;29;20624;-91
2024/03/23 00:03:16;;;;;;;16.85;9.48;;;8.60;99.90;;;;;;4830004;29;20222;-92
2024/03/23 00:05:43;;;;;;;14.53;9.30;;;8.60;99.90;;;;;;4828021;29;20641;-90
2024/03/23 00:08:09;;;;;;;15.95;9.80;;;8.60;99.90;;;;;;4827692;29;20225;-90
2024/03/23 00:10:36;;;;;;;15.80;9.90;;;8.60;99.90;;;;;;4827592;29;20198;-90
2024/03/23 00:13:05;;;;;;;16.33;9.73;;;8.60;99.90;;;;;;4828087;29;20193;-91
2024/03/23 00:15:33;;;;;;;19.65;9.77;;;8.50;99.90;;;;;;4828178;29;20268;-91
2024/03/23 00:18:03;;;;;;;19.47;10.50;;;8.50;99.90;;;;;;4835856;29;20228;-89
2024/03/23 00:20:29;;;;;;;16.45;10.27;;;8.50;99.90;;;;;;4862507;29;20185;-89
2024/03/23 00:22:57;;;;;;;17.83;10.43;;;8.50;99.90;;;;;;4836606;29;20256;-90
2024/03/23 00:25:24;;;;;;;22.10;10.55;;;8.50;99.90;;;;;;4842536;29;20618;-90
2024/03/23 00:27:51;;;;;;;21.33;10.20;;;8.40;99.90;;;;;;4843715;29;20209;-91
2024/03/23 00:30:18;;;;;;;20.17;9.43;;;8.40;99.90;;;;;;4827842;29;20197;-92
2024/03/23 00:35:33;;;;;;;16.93;9.03;;;8.40;99.90;;;;;;5080036;23;20252;-92
2024/03/23 00:38:00;;;;;;;16.63;9.17;;;8.40;99.90;;;;;;4832171;29;20232;-93
2024/03/23 00:40:27;;;;;;;15.93;8.65;;;8.40;99.90;;;;;;4837285;29;20230;-94
2024/03/23 00:42:53;;;;;;;15.63;9.15;;;8.40;99.90;;;;;;4836764;29;20272;-92
2024/03/23 00:45:20;;;;;;;18.17;9.47;;;8.40;99.90;;;;;;4852945;29;20197;-94
2024/03/23 00:47:47;;;;;;;13.97;9.27;;;8.40;99.90;;;;;;4849127;29;20229;-93
2024/03/23 00:50:14;;;;;;;17.00;9.57;;;8.30;99.90;;;;;;4850349;29;20216;-94
2024/03/23 00:52:40;;;;;;;18.15;9.02;;;8.40;99.90;;;;;;4850414;29;20205;-95
2024/03/23 00:55:07;;;;;;;20.02;8.98;;;8.40;99.90;;;;;;4847418;29;20191;-93
2024/03/23 00:57:33;;;;;;;16.55;8.50;;;8.30;99.90;;;;;;4848717;29;20189;-93
2024/03/23 00:59:59;;;;;;;13.83;6.90;;;8.30;99.90;;;;;;4847900;29;20668;-93
2024/03/23 01:02:25;;;;;;;13.70;6.20;;;8.20;99.90;;;;;;4850170;29;20189;-94
2024/03/23 01:04:50;;;;;;;19.73;6.90;;;8.20;99.90;;;;;;4850568;29;20188;-92
2024/03/23 01:07:16;;;;;;;15.83;5.80;;;8.20;99.90;;;;;;4846992;29;20213;-92
2024/03/23 01:09:42;;;;;;;14.33;5.47;;;8.10;99.90;;;;;;4832265;29;20184;-95
2024/03/23 01:12:09;;;;;;;14.37;4.53;;;8.00;99.90;;;;;;4848333;29;20209;-94
2024/03/23 01:14:35;;;;;;;12.17;4.00;;;8.00;99.90;;;;;;4847018;29;20237;-92
2024/03/23 01:17:07;;;;;;;8.60;4.00;;;8.00;99.90;;;;;;4846260;29;20185;-92
2024/03/23 01:19:33;;;;;;;9.83;4.13;;;7.90;99.90;;;;;;4846002;29;20177;-91
2024/03/23 01:21:59;;;;;;;13.77;3.90;;;7.90;99.90;;;;;;4846420;29;20288;-92
2024/03/23 01:24:25;;;;;;;10.77;3.50;;;7.90;99.90;;;;;;4847233;29;20348;-92
2024/03/23 01:26:51;;;;;;;10.40;4.13;;;7.90;99.90;;;;;;4847181;29;20254;-92
2024/03/23 01:29:16;;;;;;;13.13;4.80;;;7.80;99.90;;;;;;4847306;29;20216;-91
2024/03/23 01:31:42;;;;;;;9.07;4.13;;;7.80;99.90;;;;;;4845863;29;20186;-94
2024/03/23 01:34:08;;;;;;;10.80;4.00;;;7.90;99.90;;;;;;4830974;29;20320;-93
2024/03/23 01:36:36;;;;;;;10.23;4.60;;;7.70;99.90;;;;;;4846783;29;20766;-93
2024/03/23 01:39:02;;;;;;;9.40;3.67;;;7.70;99.90;;;;;;4830172;29;20192;-93
2024/03/23 01:41:30;;;;;;;12.70;4.70;;;7.60;99.90;;;;;;4830050;29;20181;-93
2024/03/23 01:43:57;;;;;;;12.40;4.13;;;7.70;99.90;;;;;;4830614;29;20196;-91
2024/03/23 01:46:23;;;;;;;11.63;4.32;;;7.70;99.90;;;;;;4829794;29;20181;-92
2024/03/23 01:48:49;;;;;;;9.03;3.50;;;7.80;99.90;;;;;;4830921;29;20503;-92
2024/03/23 01:51:15;;;;;;;10.37;4.50;;;7.90;99.90;;;;;;4829848;29;20193;-92
2024/03/23 01:53:41;;;;;;;7.90;3.73;;;7.90;99.90;;;;;;4830035;29;20195;-92
2024/03/23 01:56:08;;;;;;;10.60;3.73;;;7.90;99.90;;;;;;4830123;29;20272;-92
2024/03/23 01:58:33;;;;;;;8.93;4.03;;;7.90;99.90;;;;;;4830306;29;20224;-92
2024/03/23 02:00:59;;;;;;;12.05;4.35;;;8.00;99.90;;;;;;4830155;29;20186;-90
2024/03/23 02:03:28;;;;;;;11.07;4.10;;;7.90;99.90;;;;;;4829887;29;20193;-93
2024/03/23 02:05:55;;;;;;;9.90;3.43;;;7.90;99.90;;;;;;4829609;29;20201;-92
2024/03/23 02:08:23;;;;;;;9.23;3.37;;;7.90;99.90;;;;;;4845262;29;20612;-92
2024/03/23 02:10:50;;;;;;;8.67;3.27;;;7.90;99.90;;;;;;4845980;29;20185;-91
2024/03/23 02:13:17;;;;;;;7.60;3.60;;;7.80;99.90;;;;;;4844973;29;20219;-91
2024/03/23 02:15:44;;;;;;;11.50;4.17;;;7.80;99.90;;;;;;4844744;29;20187;-92
2024/03/23 02:18:11;;;;;;;15.13;3.53;;;7.80;99.90;;;;;;4844783;29;20195;-91
2024/03/23 02:20:37;;;;;;;13.07;3.90;;;7.80;99.90;;;;;;4844891;29;20254;-92
2024/03/23 02:23:06;;;;;;;10.60;3.53;;;7.80;99.90;;;;;;4844794;29;20196;-92
2024/03/23 02:25:33;;;;;;;11.37;3.63;;;7.80;99.90;;;;;;4844591;29;20212;-90
2024/03/23 02:27:59;;;;;;;7.37;3.57;;;7.80;99.90;;;;;;4844578;29;20220;-91
2024/03/23 02:30:26;;;;;;;7.15;3.40;;;7.80;99.90;;;;;;4845612;29;20182;-91
2024/03/23 02:32:52;;;;;;;9.32;3.40;;;7.80;99.90;;;;;;4844740;29;20193;-92
2024/03/23 02:35:18;;;;;;;6.30;3.30;;;7.70;99.90;;;;;;4844120;29;20236;-92
2024/03/23 02:37:45;;;;;;;10.17;3.73;;;7.70;99.90;;;;;;4843934;29;20193;-90
2024/03/23 02:40:11;;;;;;;9.40;3.60;;;7.60;99.90;;;;;;4828946;29;20643;-91
2024/03/23 02:42:39;;;;;;;12.63;3.63;;;7.60;99.90;;;;;;4844264;29;20272;-91
2024/03/23 02:45:05;;;;;;;9.57;3.43;;;7.60;99.90;;;;;;4844551;29;20613;-91
2024/03/23 02:47:33;;;;;;;5.80;2.90;;;7.50;99.90;;;;;;4844558;29;20312;-91
2024/03/23 02:49:59;;;;;;;12.13;3.53;;;7.50;99.90;;;;;;4844338;29;20181;-90
2024/03/23 02:52:25;;;;;;;12.30;3.80;;;7.50;99.90;;;;;;4844299;29;20186;-91
2024/03/23 02:54:51;;;;;;;9.30;3.20;;;7.50;99.90;;;;;;4844360;29;20193;-91
2024/03/23 02:57:35;;;;;;;10.30;3.90;;;7.60;99.90;;;;;;4843752;29;20219;-92
2024/03/23 03:00:02;;;;;;;10.13;4.00;;;7.50;99.90;;;;;;4844174;29;20181;-91
2024/03/23 03:02:27;;;;;;;9.07;3.17;;;7.50;99.90;;;;;;4844117;29;20185;-92
2024/03/23 03:04:53;;;;;;;10.07;3.33;;;7.30;99.90;;;;;;4843897;29;20284;-91
2024/03/23 03:07:20;;;;;;;6.00;3.10;;;7.20;99.90;;;;;;4843849;29;20709;-90
2024/03/23 03:09:46;;;;;;;14.00;4.07;;;7.20;99.90;;;;;;4843943;29;20217;-90
2024/03/23 03:12:12;;;;;;;6.93;3.53;;;7.20;99.90;;;;;;4843645;29;20188;-91
2024/03/23 03:14:38;;;;;;;6.60;3.07;;;7.20;99.90;;;;;;4844825;29;20637;-94
2024/03/23 03:17:05;;;;;;;10.60;3.37;;;7.20;99.90;;;;;;4844233;29;20681;-91
2024/03/23 03:19:32;;;;;;;11.53;4.20;;;7.20;99.90;;;;;;4844209;29;20181;-91
2024/03/23 03:21:58;;;;;;;12.27;4.00;;;7.20;99.90;;;;;;4843535;29;20186;-92
2024/03/23 03:24:24;;;;;;;8.17;3.37;;;7.20;99.90;;;;;;4844828;29;20215;-94
2024/03/23 03:27:06;;;;;;;10.27;3.53;;;7.20;99.90;;;;;;4843643;29;20247;-93
2024/03/23 03:29:35;;;;;;;12.03;3.83;;;7.20;99.90;;;;;;4843793;29;20522;-92
2024/03/23 03:32:02;;;;;;;14.57;4.37;;;7.20;99.90;;;;;;4843728;29;20212;-93
2024/03/23 03:34:28;;;;;;;11.10;4.63;;;7.20;99.90;;;;;;4840531;29;20684;-93
2024/03/23 03:36:59;;;;;;;9.13;3.97;;;7.20;99.90;;;;;;4840335;29;20201;-94
2024/03/23 03:39:26;;;;;;;10.30;4.13;;;7.10;99.90;;;;;;4840593;29;20178;-94
2024/03/23 03:41:52;;;;;;;13.90;4.33;;;7.10;99.90;;;;;;4840820;29;20186;-94
2024/03/23 03:44:18;;;;;;;12.67;4.37;;;7.10;99.90;;;;;;4840407;29;20186;-94
2024/03/23 03:46:45;;;;;;;16.10;4.93;;;7.10;99.90;;;;;;4840568;29;20197;-94
2024/03/23 03:49:10;;;;;;;9.87;4.87;;;7.10;99.90;;;;;;4840796;29;20496;-91
2024/03/23 03:51:36;;;;;;;11.03;5.07;;;7.10;99.90;;;;;;4840172;29;20182;-92
2024/03/23 03:54:02;;;;;;;12.77;5.00;;;7.10;99.90;;;;;;4840428;29;20573;-92
2024/03/23 03:56:28;;;;;;;10.10;4.63;;;7.10;99.90;;;;;;4840415;29;20182;-94
2024/03/23 03:58:56;;;;;;;16.50;6.30;;;7.10;99.90;;;;;;4840338;29;20198;-91
2024/03/23 04:01:22;;;;;;;14.00;5.60;;;7.00;99.90;;;;;;4840587;29;20174;-93
2024/03/23 04:03:47;;;;;;;12.80;5.80;;;7.00;99.90;;;;;;4840321;29;20190;-92
2024/03/23 04:06:19;;;;;;;13.97;5.43;;;7.00;99.90;;;;;;4840152;29;20212;-94
2024/03/23 04:08:45;;;;;;;11.67;4.93;;;7.00;99.90;;;;;;4840283;29;20620;-94
2024/03/23 04:11:11;;;;;;;11.57;4.63;;;7.00;99.90;;;;;;4842736;29;20194;-91
2024/03/23 04:13:37;;;;;;;10.87;4.50;;;7.00;99.90;;;;;;4844080;29;20213;-94
2024/03/23 04:16:03;;;;;;;12.80;4.73;;;7.00;99.90;;;;;;4844236;29;20186;-94
2024/03/23 04:18:30;;;;;;;10.93;4.67;;;6.90;99.90;;;;;;4843923;29;20201;-95
2024/03/23 04:20:56;;;;;;;11.97;4.47;;;6.90;99.90;;;;;;4843539;29;20965;-94
2024/03/23 04:23:22;;;;;;;11.43;4.13;;;6.90;99.90;;;;;;4843970;29;20236;-94
2024/03/23 04:25:48;;;;;;;12.60;4.13;;;6.90;99.90;;;;;;4843829;29;20182;-95
2024/03/23 04:28:13;;;;;;;12.50;3.67;;;6.90;99.90;;;;;;4843854;29;20308;-95
2024/03/23 04:30:39;;;;;;;14.17;4.20;;;6.90;99.90;;;;;;4829259;29;20179;-94
2024/03/23 04:33:05;;;;;;;13.40;3.97;;;6.90;99.90;;;;;;4843686;29;20273;-93
2024/03/23 04:35:31;;;;;;;11.87;4.00;;;6.90;99.90;;;;;;4843341;29;20386;-94
2024/03/23 04:37:58;;;;;;;12.10;3.70;;;6.90;99.90;;;;;;4843600;29;20201;-95
2024/03/23 04:40:25;;;;;;;11.20;3.67;;;6.90;99.90;;;;;;4843580;29;20178;-94
2024/03/23 04:42:50;;;;;;;12.27;3.77;;;6.90;99.90;;;;;;4843312;29;20189;-96
2024/03/23 04:45:16;;;;;;;11.77;4.10;;;6.90;99.90;;;;;;4843230;29;20186;-95
2024/03/23 04:47:42;;;;;;;10.03;4.37;;;6.90;99.90;;;;;;4845945;29;20217;-95
2024/03/23 04:50:10;;;;;;;10.80;3.63;;;6.90;99.90;;;;;;4846194;29;20177;-94
2024/03/23 04:52:36;;;;;;;13.93;4.20;;;6.90;99.90;;;;;;4846482;29;20189;-95
2024/03/23 04:55:02;;;;;;;10.57;3.73;;;6.90;99.90;;;;;;4847256;29;20177;-93
2024/03/23 04:57:30;;;;;;;10.47;3.70;;;6.90;99.90;;;;;;4845982;29;20295;-95
2024/03/23 04:59:56;;;;;;;10.57;3.37;;;6.90;99.90;;;;;;4847061;29;20184;-92
2024/03/23 05:02:22;;;;;;;11.67;3.60;;;6.90;99.90;;;;;;4846393;29;20510;-93
2024/03/23 05:04:48;;;;;;;8.40;3.57;;;6.90;99.90;;;;;;4850656;29;20199;-93
2024/03/23 05:07:14;;;;;;;11.00;3.20;;;6.90;99.90;;;;;;4848931;29;20212;-93
2024/03/23 05:09:50;;;;;;;9.20;2.83;;;6.80;99.90;;;;;;4849072;29;20225;-92
2024/03/23 05:12:15;;;;;;;9.03;2.67;;;6.80;99.90;;;;;;4849274;29;20192;-92
2024/03/23 05:14:41;;;;;;;12.00;2.80;;;6.80;99.90;;;;;;4849047;29;20185;-93
2024/03/23 05:17:07;;;;;;;9.93;2.70;;;6.90;99.90;;;;;;4864503;29;20189;-93
2024/03/23 05:19:34;;;;;;;9.83;2.67;;;6.80;99.90;;;;;;4849148;29;20195;-93
2024/03/23 05:22:03;;;;;;;6.10;2.07;;;6.80;99.90;;;;;;4848430;29;20191;-92
2024/03/23 05:24:29;;;;;;;10.87;2.83;;;6.80;99.90;;;;;;4864258;29;20184;-93
2024/03/23 05:26:55;;;;;;;11.47;2.60;;;6.70;99.90;;;;;;4848781;29;20307;-93
2024/03/23 05:29:32;;;;;;;10.67;2.50;;;6.70;99.90;;;;;;4865396;29;20216;-94
2024/03/23 05:31:58;;;;;;;8.77;2.30;;;6.80;99.90;;;;;;4848618;29;20177;-94
2024/03/23 05:34:24;;;;;;;10.73;2.90;;;6.70;99.90;;;;;;4863864;29;20572;-93
2024/03/23 05:36:51;;;;;;;7.83;2.73;;;6.70;99.90;;;;;;4865077;29;20184;-93
2024/03/23 05:39:18;;;;;;;5.70;2.00;;;6.80;99.90;;;;;;4848669;29;20188;-93
2024/03/23 05:41:44;;;;;;;7.17;2.20;;;6.80;99.90;;;;;;4848093;29;20581;-94
2024/03/23 05:44:10;;;;;;;7.93;2.43;;;6.80;99.90;;;;;;4848092;29;20185;-93
2024/03/23 05:46:36;;;;;;;7.70;2.53;;;6.80;99.90;;;;;;4848548;29;20539;-93
2024/03/23 05:49:03;;;;;;;8.07;2.63;;;6.80;99.90;;;;;;4848525;29;20206;-93
2024/03/23 05:51:29;;;;;;;12.70;3.00;;;6.90;99.90;;;;;;4848238;29;20180;-93
2024/03/23 05:53:54;;;;;;;8.17;2.50;;;6.80;99.90;;;;;;4848223;29;20180;-92
2024/03/23 05:56:20;;;;;;;8.80;2.83;;;6.80;99.90;;;;;;4848253;29;20184;-91
2024/03/23 05:58:46;;;;;;;6.87;2.97;;;6.80;99.90;;;;;;4848248;29;20193;-93
2024/03/23 06:01:12;;;;;;;9.10;3.10;;;6.90;99.90;;;;;;4848144;29;20566;-92
2024/03/23 06:03:38;;;;;;;13.20;3.00;;;6.90;99.90;;;;;;4848173;29;20193;-92
2024/03/23 06:06:04;;;;;;;10.60;2.80;;;6.90;99.90;;;;;;4847813;29;20188;-92
2024/03/23 06:08:37;;;;;;;11.67;2.50;;;6.70;99.90;;;;;;4847983;29;20610;-91
2024/03/23 06:11:05;;;;;;;8.73;2.20;;;6.60;99.90;;;;;;4863381;29;20180;-91
2024/03/23 06:13:32;;;;;;;9.17;2.10;;;6.50;99.90;;;;;;4863326;29;20192;-91
2024/03/23 06:15:58;;;;;;;7.80;2.10;;;6.40;99.90;;;;;;4863354;29;20209;-91
2024/03/23 06:18:26;;;;;;;10.60;2.17;;;6.30;99.90;;;;;;4847989;29;20707;-92
2024/03/23 06:20:52;;;;;;;7.00;1.90;;;6.20;99.90;;;;;;4847873;29;20210;-90
2024/03/23 06:23:20;;;;;;;9.67;2.00;;;6.00;99.90;;;;;;4847980;29;20188;-91
2024/03/23 06:25:46;;;;;;;5.93;1.77;;;6.00;99.90;;;;;;4847804;29;20180;-91
2024/03/23 06:28:14;;;;;;;6.73;1.70;;;5.90;99.90;;;;;;4863050;29;20216;-91
2024/03/23 06:30:39;;;;;;;11.30;2.47;;;5.90;99.90;;;;;;4847839;29;20181;-91
2024/03/23 06:33:05;;;;;;;10.33;2.60;;;5.90;99.90;;;;;;4847040;29;20199;-92
2024/03/23 06:35:31;;;;;;;14.83;3.07;;;6.00;99.90;;;;;;4862608;29;20268;-92
2024/03/23 06:37:58;;;;;;;11.13;2.80;;;6.00;99.90;;;;;;4841993;29;20197;-91
2024/03/23 06:40:48;;;;;;;9.10;2.80;;;6.10;99.90;;;;;;4839388;29;20630;-92
2024/03/23 06:43:14;;;;;;;10.50;3.07;;;6.10;99.90;;;;;;4844404;29;20201;-92
2024/03/23 06:45:40;;;;;;;9.20;2.60;;;6.00;99.90;;;;;;4836192;29;20245;-93
2024/03/23 06:48:07;;;;;;;8.93;2.33;;;6.00;99.90;;;;;;4841434;29;20282;-92
2024/03/23 06:50:34;;;;;;;6.63;2.23;;;6.10;99.90;;;;;;4825862;29;20212;-92
2024/03/23 06:53:01;;;;;;;12.07;3.00;;;6.10;99.90;;;;;;4854285;29;20605;-94
2024/03/23 06:55:28;;;;;;;9.13;2.33;;;6.10;99.90;;;;;;4851652;29;20178;-92
2024/03/23 06:57:54;;;;;;;9.13;2.40;;;6.10;99.90;;;;;;4844512;29;20552;-93
2024/03/23 07:00:20;;;;;;;10.17;2.20;;;6.10;99.90;;;;;;4843997;29;20224;-92
2024/03/23 07:02:45;;;;;;;8.33;2.27;;;6.10;99.90;;;;;;4844090;29;20284;-92
2024/03/23 07:05:11;;;;;;;12.53;2.57;;;6.20;99.90;;;;;;4844157;29;20276;-92
2024/03/23 07:07:41;;;;;;;8.47;2.20;;;6.30;99.90;;;;;;4843782;29;20611;-93
2024/03/23 07:10:14;;;;;;;9.37;2.40;;;6.40;99.90;;;;;;4846052;29;20234;-93
2024/03/23 07:12:40;;;;;;;10.70;2.23;;;6.40;99.90;;;;;;4843622;29;20280;-94
2024/03/23 07:15:12;;;;;;;10.80;2.60;;;6.50;99.90;;;;;;4843411;29;20271;-92
2024/03/23 07:17:37;;;;;;;9.70;2.60;;;6.50;99.90;;;;;;4828912;29;20212;-93
2024/03/23 07:20:16;;;;;;;8.50;2.57;;;6.60;99.90;;;;;;4843935;29;20221;-94
2024/03/23 07:22:42;;;;;;;8.43;2.90;;;6.60;99.90;;;;;;4844183;29;20220;-93
2024/03/23 07:25:08;;;;;;;11.93;2.70;;;6.70;99.90;;;;;;4843991;29;20185;-94
2024/03/23 07:27:34;;;;;;;9.50;2.63;;;6.70;99.90;;;;;;4844251;29;20224;-96
2024/03/23 07:30:01;;;;;;;9.83;2.57;;;6.80;99.90;;;;;;4845119;29;20231;-93
2024/03/23 07:32:27;;;;;;;12.00;2.30;;;6.80;99.90;;;;;;4844246;29;20280;-92
2024/03/23 07:34:53;;;;;;;12.50;3.00;;;6.90;99.90;;;;;;4840333;29;20237;-92
2024/03/23 07:37:19;;;;;;;12.43;2.60;;;6.90;99.90;;;;;;4840459;29;20182;-92
2024/03/23 07:39:44;;;;;;;10.70;2.63;;;6.90;99.90;;;;;;4826617;29;20189;-94
2024/03/23 07:42:10;;;;;;;7.93;2.30;;;6.90;99.90;;;;;;4840428;29;20615;-92
2024/03/23 07:44:37;;;;;;;12.00;2.40;;;6.90;99.90;;;;;;4840148;29;20237;-93
2024/03/23 07:47:12;;;;;;;6.03;2.33;;;7.00;99.90;;;;;;4840388;29;20205;-93
2024/03/23 07:49:39;;;;;;;10.93;2.00;;;7.00;99.90;;;;;;4840646;29;20186;-92
2024/03/23 07:52:05;;;;;;;8.57;1.87;;;7.10;99.90;;;;;;4840437;29;20186;-93
2024/03/23 07:54:31;;;;;;;8.50;2.00;;;7.10;99.90;;;;;;4840414;29;20190;-93
2024/03/23 07:56:57;;;;;;;6.93;1.40;;;7.10;99.90;;;;;;4840464;29;20189;-89
2024/03/23 07:59:26;;;;;;;6.00;1.50;;;7.20;99.90;;;;;;4840375;29;20178;-92
2024/03/23 08:01:52;;;;;;;12.33;1.90;;;7.10;99.90;;;;;;4840576;29;20219;-92
2024/03/23 08:04:17;;;;;;;7.47;1.87;;;7.20;99.90;;;;;;4840552;29;20576;-92
2024/03/23 08:06:43;;;;;;;5.47;1.50;;;7.20;99.90;;;;;;4840101;29;20186;-94
2024/03/23 08:09:09;;;;;;;6.27;1.70;;;7.10;99.90;;;;;;4840298;29;20233;-93
2024/03/23 08:11:35;;;;;;;7.10;1.67;;;7.10;99.90;;;;;;4840399;29;20193;-91
2024/03/23 08:14:11;;;;;;;4.47;1.60;;;7.10;99.90;;;;;;4840609;29;20533;-92
2024/03/23 08:16:37;;;;;;;9.57;1.57;;;7.00;99.90;;;;;;4840291;29;20521;-93
2024/03/23 08:19:03;;;;;;;10.33;1.73;;;7.00;99.90;;;;;;4840340;29;20194;-94
2024/03/23 08:21:31;;;;;;;6.17;1.17;;;6.90;99.90;;;;;;4840089;29;20179;-94
2024/03/23 08:23:57;;;;;;;9.33;1.50;;;6.90;99.90;;;;;;4840229;29;20182;-93
2024/03/23 08:26:23;;;;;;;11.87;1.80;;;6.90;99.90;;;;;;4840467;29;20318;-94
2024/03/23 08:28:49;;;;;;;9.90;1.67;;;6.80;99.90;;;;;;4840455;29;20211;-93
2024/03/23 08:31:19;;;;;;;8.37;1.63;;;6.80;99.90;;;;;;4840858;29;20182;-92
2024/03/23 08:33:44;;;;;;;8.23;1.90;;;6.80;99.90;;;;;;4841820;29;20217;-92
2024/03/23 08:36:16;;;;;;;8.03;1.50;;;6.80;99.90;;;;;;4844343;29;20248;-95
2024/03/23 08:38:42;;;;;;;8.80;1.80;;;6.90;99.90;;;;;;4843531;29;20189;-94
2024/03/23 08:41:11;;;;;;;9.50;2.07;;;7.00;99.90;;;;;;4843584;29;20184;-94
2024/03/23 08:43:42;;;;;;;8.63;1.93;;;7.00;99.90;;;;;;4843989;29;20294;-93
2024/03/23 08:46:15;;;;;;;6.17;1.60;;;7.00;99.90;;;;;;4842411;29;20225;-93
2024/03/23 08:48:46;;;;;;;8.73;1.80;;;7.00;99.90;;;;;;4842362;29;20251;-91
2024/03/23 08:51:15;;;;;;;6.23;1.33;;;7.10;99.90;;;;;;4842608;29;20267;-91
2024/03/23 08:53:41;;;;;;;5.87;1.43;;;7.10;99.90;;;;;;4843029;29;20186;-93
2024/03/23 08:56:08;;;;;;;11.17;2.07;;;7.20;99.90;;;;;;4845940;29;20276;-91
2024/03/23 08:58:35;;;;;;;14.17;2.13;;;7.30;99.90;;;;;;4847701;29;20197;-92
2024/03/23 09:01:08;;;;;;;14.47;2.43;;;7.30;99.90;;;;;;4849040;29;20198;-90
2024/03/23 09:03:35;;;;;;;9.97;2.37;;;7.40;99.90;;;;;;4846817;29;20178;-93
2024/03/23 09:06:02;;;;;;;13.60;3.10;;;7.40;99.90;;;;;;4858836;29;20197;-93
2024/03/23 09:08:28;;;;;;;12.53;3.20;;;7.50;99.90;;;;;;4865269;29;20693;-95
2024/03/23 09:10:55;;;;;;;9.40;3.00;;;7.50;99.90;;;;;;4849219;29;20184;-92
2024/03/23 09:13:21;;;;;;;16.07;4.20;;;7.60;99.90;;;;;;4850011;29;20275;-94
2024/03/23 09:15:56;;;;;;;15.30;3.53;;;7.60;99.90;;;;;;4849033;29;20267;-95
2024/03/23 09:18:22;;;;;;;13.40;3.67;;;7.60;99.90;;;;;;4865381;29;20183;-93
2024/03/23 09:20:57;;;;;;;16.53;4.07;;;7.60;99.90;;;;;;4864346;29;20187;-92
2024/03/23 09:23:23;;;;;;;15.63;3.97;;;7.70;99.90;;;;;;4865803;29;20176;-93
2024/03/23 09:25:49;;;;;;;15.03;3.47;;;7.70;99.90;;;;;;4864379;29;20188;-91
2024/03/23 09:28:14;;;;;;;18.90;4.20;;;7.90;99.90;;;;;;4849112;29;20292;-92
2024/03/23 09:31:05;;;;;;;23.63;5.00;;;8.00;99.90;;;;;;4849382;29;20226;-95
2024/03/23 09:33:31;;;;;;;13.97;4.13;;;8.10;99.90;;;;;;4864594;29;20692;-92
2024/03/23 09:35:56;;;;;;;16.67;4.40;;;8.00;99.90;;;;;;4835346;29;20246;-92
2024/03/23 09:38:25;;;;;;;16.73;4.63;;;8.10;99.90;;;;;;4845563;29;20189;-91
2024/03/23 09:40:53;;;;;;;16.63;4.40;;;8.20;99.90;;;;;;4845550;29;20182;-92
2024/03/23 09:43:19;;;;;;;14.40;3.80;;;8.40;99.90;;;;;;4845549;29;20624;-92
2024/03/23 09:45:46;;;;;;;15.67;4.43;;;8.40;99.90;;;;;;4845172;29;20185;-92
2024/03/23 09:48:13;;;;;;;18.93;4.90;;;8.40;99.90;;;;;;4845567;29;20217;-91
2024/03/23 09:50:48;;;;;;;14.60;3.73;;;8.30;99.90;;;;;;4846709;29;20192;-91
2024/03/23 09:53:15;;;;;;;17.37;4.93;;;8.30;99.90;;;;;;4846478;29;20290;-93
2024/03/23 09:55:43;;;;;;;18.83;4.40;;;8.30;99.90;;;;;;4845597;29;21006;-93
2024/03/23 09:58:13;;;;;;;19.50;4.43;;;8.30;99.90;;;;;;4847225;29;20639;-91
2024/03/23 10:00:46;;;;;;;15.20;4.07;;;8.30;99.90;;;;;;4845583;29;20189;-92
2024/03/23 10:03:11;;;;;;;13.93;4.10;;;8.40;99.90;;;;;;4845099;29;20196;-92
2024/03/23 10:05:38;;;;;;;17.83;4.40;;;8.40;99.90;;;;;;4845196;29;20189;-91
2024/03/23 10:08:16;;;;;;;19.90;4.63;;;8.50;99.90;;;;;;4846134;29;20308;-91
2024/03/23 10:10:46;;;;;;;20.50;4.97;;;8.50;99.90;;;;;;4845192;29;20211;-92
2024/03/23 10:13:26;;;;;;;17.77;4.47;;;8.60;99.90;;;;;;4846439;29;20174;-91
2024/03/23 10:15:57;;;;;;;20.47;5.13;;;8.70;99.90;;;;;;4845236;29;20192;-91
2024/03/23 10:18:24;;;;;;;14.97;3.87;;;8.60;99.90;;;;;;4844513;29;20610;-89
2024/03/23 10:21:03;;;;;;;18.37;4.17;;;8.70;99.90;;;;;;4844386;29;20276;-91
2024/03/23 10:23:29;;;;;;;14.97;3.70;;;8.70;99.90;;;;;;4844978;29;20184;-91
2024/03/23 10:26:00;;;;;;;10.80;3.67;;;8.70;99.90;;;;;;4844965;29;20617;-90
2024/03/23 10:28:26;;;;;;;15.50;4.40;;;8.60;99.90;;;;;;4844606;29;20246;-91
2024/03/23 10:30:55;;;;;;;11.90;4.00;;;8.70;99.90;;;;;;4844580;29;20182;-91
2024/03/23 10:33:21;;;;;;;15.57;4.40;;;9.00;99.90;;;;;;4844858;29;20188;-89
2024/03/23 10:35:48;;;;;;;13.70;4.23;;;9.20;99.90;;;;;;4844207;29;20275;-88
2024/03/23 10:38:14;;;;;;;13.73;3.70;;;9.20;99.90;;;;;;4844601;29;20234;-90
2024/03/23 10:40:41;;;;;;;14.18;3.60;;;9.30;99.90;;;;;;4844474;29;20182;-90
2024/03/23 10:43:25;;;;;;;17.00;3.67;;;9.40;99.90;;;;;;4844666;29;20291;-91
2024/03/23 10:45:51;;;;;;;15.60;3.72;;;9.60;99.90;;;;;;4844551;29;20181;-90
2024/03/23 10:48:17;;;;;;;15.18;4.60;;;9.70;99.90;;;;;;4844311;29;20312;-90
2024/03/23 10:50:43;;;;;;;9.77;3.15;;;9.90;99.90;;;;;;4844110;29;20221;-88
2024/03/23 10:53:09;;;;;;;15.90;3.85;;;10.10;99.90;;;;;;4844306;29;20529;-89
2024/03/23 10:55:35;;;;;;;17.40;4.20;;;10.20;99.90;;;;;;4844460;29;20181;-89
2024/03/23 10:58:02;;;;;;;8.02;3.03;;;10.20;99.90;;;;;;4844329;29;20185;-90
2024/03/23 11:00:28;;;;;;;15.48;3.97;;;10.10;99.90;;;;;;4844365;29;20218;-91
2024/03/23 11:03:33;;;;;;;15.23;4.03;;;9.70;99.90;;;;;;4844098;29;20210;-94
2024/03/23 11:06:03;;;;;;;12.67;3.27;;;9.30;99.90;;;;;;4843928;29;20173;-91
2024/03/23 11:08:32;;;;;;;8.40;2.30;;;9.10;99.90;;;;;;4844836;29;20265;-87
2024/03/23 11:11:21;;;;;;;9.73;2.63;;;8.90;99.90;;;;;;4844112;29;20614;-90
2024/03/23 11:13:51;;;;;;;9.80;2.40;;;8.70;99.90;;;;;;4845134;29;20234;-91
2024/03/23 11:16:35;;;;;;;9.40;1.70;;;8.60;99.90;;;;;;4843947;29;20182;-90
2024/03/23 11:19:36;;;;;;;14.17;2.77;;;8.90;99.90;;;;;;4828570;29;20181;-91
2024/03/23 11:22:03;;;;;;;8.02;2.00;;;9.40;99.90;;;;;;4844012;29;20185;-91
2024/03/23 11:24:29;;;;;;;18.38;2.85;;;9.70;99.90;;;;;;4843636;29;20656;-87
2024/03/23 11:26:55;;;;;;;8.40;2.83;;;9.60;99.90;;;;;;4843678;29;20185;-90
2024/03/23 11:29:20;;;;;;;9.50;2.08;;;9.40;99.90;;;;;;4843827;29;20189;-92
2024/03/23 11:31:53;;;;;;;6.75;1.80;;;9.40;99.90;;;;;;4829299;29;20196;-88
2024/03/23 11:34:20;;;;;;;12.60;2.53;;;9.50;99.90;;;;;;4843899;29;20237;-90
2024/03/23 11:36:47;;;;;;;8.03;2.20;;;9.80;99.90;;;;;;4843417;29;20579;-91
2024/03/23 11:39:17;;;;;;;9.93;2.33;;;10.10;99.90;;;;;;4843576;29;20192;-87
2024/03/23 11:41:50;;;;;;;8.25;2.42;;;10.30;99.90;;;;;;4843700;29;20212;-91
2024/03/23 11:44:20;;;;;;;9.57;3.00;;;10.50;99.90;;;;;;4843907;29;20212;-91
2024/03/23 11:46:47;;;;;;;7.30;2.20;;;10.60;99.90;;;;;;4844056;29;20312;-89
2024/03/23 11:49:29;;;;;;;11.95;2.60;;;10.70;99.90;;;;;;4843741;29;20189;-92
2024/03/23 11:51:56;;;;;;;6.97;1.88;;;10.70;99.90;;;;;;4843234;29;20199;-89
2024/03/23 11:54:23;;;;;;;4.03;1.52;;;10.30;99.90;;;;;;4843545;29;20276;-88
2024/03/23 11:57:00;;;;;;;5.00;1.47;;;8.80;99.90;;;;;;4844985;29;20529;-93
2024/03/23 11:59:40;;;;;;;3.27;1.23;;;7.70;99.90;;;;;;4844337;29;20204;-92
2024/03/23 12:02:10;;;;;;;5.77;1.40;;;6.90;99.90;;;;;;4845212;29;20197;-89
2024/03/23 12:04:36;;;;;;;3.47;1.20;;;6.60;99.90;;;;;;4844963;29;20182;-90
2024/03/23 12:07:19;;;;;;;2.33;1.00;;;6.50;99.90;;;;;;4844633;29;20189;-90
2024/03/23 12:09:46;;;;;;;4.70;1.10;;;6.60;99.90;;;;;;4846036;29;20185;-91
2024/03/23 12:12:21;;;;;;;4.93;1.30;;;6.60;99.90;;;;;;4844921;29;20276;-90
2024/03/23 12:15:08;;;;;;;4.13;1.33;;;6.60;99.90;;;;;;4844793;29;20188;-91
2024/03/23 12:17:34;;;;;;;3.43;1.40;;;6.60;99.90;;;;;;4844422;29;20189;-90
2024/03/23 12:20:01;;;;;;;4.77;1.50;;;6.90;99.90;;;;;;4844177;29;20249;-90
2024/03/23 12:22:35;;;;;;;4.27;1.07;;;7.10;99.90;;;;;;4844911;29;20521;-92
2024/03/23 12:25:01;;;;;;;2.33;1.20;;;7.40;99.90;;;;;;4842793;29;20629;-89
2024/03/23 12:27:27;;;;;;;3.63;1.33;;;7.80;99.90;;;;;;4842635;29;20217;-88
2024/03/23 12:29:52;;;;;;;1.83;0.90;;;8.00;99.90;;;;;;4828129;29;20200;-90
2024/03/23 12:32:18;;;;;;;1.63;0.80;;;8.00;99.90;;;;;;4830729;29;20189;-89
2024/03/23 12:34:44;;;;;;;1.70;0.70;;;7.90;99.90;;;;;;4822009;29;20242;-89
2024/03/23 12:37:10;;;;;;;2.37;0.70;;;7.80;99.90;;;;;;4813250;29;20205;-88
2024/03/23 12:39:36;;;;;;;2.90;1.00;;;7.80;99.90;;;;;;4813175;29;20192;-89
2024/03/23 12:42:03;;;;;;;2.73;0.93;;;7.80;99.90;;;;;;4813285;29;20190;-89
2024/03/23 12:44:30;;;;;;;4.27;1.23;;;7.70;99.90;;;;;;4813171;29;20595;-89
2024/03/23 12:46:56;;;;;;;2.87;0.90;;;7.70;99.90;;;;;;4814494;29;20186;-93
2024/03/23 12:49:22;;;;;;;2.37;0.90;;;7.60;99.90;;;;;;4816038;29;20246;-94
2024/03/23 12:51:56;;;;;;;2.27;0.83;;;7.30;99.90;;;;;;4814405;29;20234;-94
2024/03/23 12:54:26;;;;;;;2.17;0.97;;;7.10;99.90;;;;;;4814103;29;20245;-93
2024/03/23 12:56:51;;;;;;;3.17;1.17;;;6.90;99.90;;;;;;4813521;29;20192;-91